createdAt,value
2022-12-08T00:01:41.660Z,16.40
2022-12-08T00:04:09.244Z,16.10
2022-12-08T00:06:59.737Z,15.57
2022-12-08T00:09:38.319Z,14.90
2022-12-08T00:12:06.462Z,15.37
2022-12-08T00:14:38.148Z,14.73
2022-12-08T00:17:06.741Z,14.97
2022-12-08T00:19:34.235Z,15.23
2022-12-08T00:22:01.821Z,16.40
2022-12-08T00:24:32.957Z,15.80
2022-12-08T00:27:00.073Z,15.07
2022-12-08T00:29:27.475Z,15.20
2022-12-08T00:31:54.648Z,14.53
2022-12-08T00:34:21.804Z,13.70
2022-12-08T00:36:48.965Z,13.93
2022-12-08T00:39:16.628Z,14.30
2022-12-08T00:42:02.789Z,13.97
2022-12-08T00:44:29.990Z,13.73
2022-12-08T00:46:57.204Z,14.17
2022-12-08T00:49:24.293Z,14.40
2022-12-08T00:51:51.405Z,13.40
2022-12-08T00:54:18.772Z,14.17
2022-12-08T00:56:46.535Z,14.30
2022-12-08T00:59:13.708Z,14.03
2022-12-08T01:01:40.867Z,14.00
2022-12-08T01:04:09.289Z,13.27
2022-12-08T01:06:36.731Z,14.07
2022-12-08T01:09:05.029Z,14.97
2022-12-08T01:11:32.588Z,13.97
2022-12-08T01:13:59.877Z,16.57
2022-12-08T01:16:29.128Z,16.13
2022-12-08T01:18:57.428Z,15.47
2022-12-08T01:21:24.552Z,15.40
2022-12-08T01:23:51.670Z,13.77
2022-12-08T01:26:19.472Z,14.23
2022-12-08T01:28:47.349Z,13.77
2022-12-08T01:31:16.722Z,12.93
2022-12-08T01:33:44.441Z,13.10
2022-12-08T01:36:22.525Z,12.63
2022-12-08T01:38:50.134Z,13.20
2022-12-08T01:41:18.582Z,13.17
2022-12-08T01:44:02.384Z,12.43
2022-12-08T01:46:30.676Z,12.03
2022-12-08T01:49:02.433Z,11.13
2022-12-08T01:51:31.044Z,11.83
2022-12-08T01:53:58.138Z,11.80
2022-12-08T01:56:28.518Z,10.67
2022-12-08T01:58:56.215Z,10.97
2022-12-08T02:01:23.796Z,10.90
2022-12-08T02:03:53.949Z,10.93
2022-12-08T02:06:21.149Z,11.80
2022-12-08T02:08:51.151Z,12.60
2022-12-08T02:11:18.276Z,12.33
2022-12-08T02:13:46.928Z,12.20
2022-12-08T02:16:29.320Z,10.70
2022-12-08T02:19:30.216Z,10.93
2022-12-08T02:21:59.476Z,10.67
2022-12-08T02:24:29.570Z,10.90
2022-12-08T02:27:19.085Z,10.93
2022-12-08T02:29:49.243Z,10.83
2022-12-08T02:32:22.144Z,10.90
2022-12-08T02:34:58.188Z,11.30
2022-12-08T02:37:34.160Z,9.47
2022-12-08T02:40:15.687Z,10.70
2022-12-08T02:42:51.409Z,10.03
2022-12-08T02:45:31.243Z,10.40
2022-12-08T02:47:59.345Z,9.70
2022-12-08T02:50:26.784Z,10.63
2022-12-08T02:52:54.384Z,11.17
2022-12-08T02:55:21.596Z,11.13
2022-12-08T02:57:54.777Z,11.13
2022-12-08T03:00:23.232Z,11.00
2022-12-08T03:02:53.532Z,10.00
2022-12-08T03:05:35.904Z,10.87
2022-12-08T03:08:15.949Z,10.10
2022-12-08T03:10:45.839Z,11.20
2022-12-08T03:13:17.232Z,10.83
2022-12-08T03:15:46.743Z,11.37
2022-12-08T03:18:15.692Z,11.33
2022-12-08T03:20:43.623Z,11.23
2022-12-08T03:23:12.646Z,12.07
2022-12-08T03:25:42.405Z,11.37
2022-12-08T03:28:10.846Z,11.30
2022-12-08T03:30:39.599Z,11.30
2022-12-08T03:33:13.003Z,11.60
2022-12-08T03:35:41.368Z,12.47
2022-12-08T03:38:11.176Z,10.90
2022-12-08T03:40:38.472Z,10.97
2022-12-08T03:43:05.600Z,11.27
2022-12-08T03:45:32.695Z,11.47
2022-12-08T03:47:59.865Z,11.40
2022-12-08T03:50:27.007Z,11.03
2022-12-08T03:52:54.192Z,10.40
2022-12-08T03:55:21.578Z,10.40
2022-12-08T03:57:48.737Z,10.13
2022-12-08T04:00:17.031Z,10.50
2022-12-08T04:02:44.370Z,9.90
2022-12-08T04:05:11.631Z,9.90
2022-12-08T04:07:38.804Z,9.83
2022-12-08T04:10:06.612Z,9.73
2022-12-08T04:12:33.943Z,10.57
2022-12-08T04:15:01.071Z,9.07
2022-12-08T04:17:28.222Z,9.03
2022-12-08T04:19:55.343Z,8.73
2022-12-08T04:22:22.492Z,9.10
2022-12-08T04:24:49.661Z,9.27
2022-12-08T04:27:16.758Z,9.10
2022-12-08T04:29:43.955Z,9.20
2022-12-08T04:32:11.160Z,9.40
2022-12-08T04:34:38.416Z,9.20
2022-12-08T04:37:05.608Z,8.90
2022-12-08T04:39:32.753Z,9.27
2022-12-08T04:41:59.927Z,8.87
2022-12-08T04:44:27.104Z,8.73
2022-12-08T04:46:54.293Z,8.70
2022-12-08T04:49:21.566Z,9.50
2022-12-08T04:51:48.957Z,9.13
2022-12-08T04:54:16.058Z,9.63
2022-12-08T04:56:43.191Z,8.97
2022-12-08T04:59:10.259Z,8.77
2022-12-08T05:01:37.476Z,9.67
2022-12-08T05:04:04.774Z,10.50
2022-12-08T05:06:31.953Z,9.83
2022-12-08T05:08:59.077Z,9.77
2022-12-08T05:11:26.235Z,9.83
2022-12-08T05:13:53.383Z,9.80
2022-12-08T05:16:20.713Z,9.30
2022-12-08T05:18:47.874Z,9.10
2022-12-08T05:21:15.431Z,9.27
2022-12-08T05:23:42.538Z,9.97
2022-12-08T05:26:09.719Z,9.57
2022-12-08T05:28:41.711Z,9.40
2022-12-08T05:31:09.811Z,9.20
2022-12-08T05:33:37.051Z,9.53
2022-12-08T05:36:04.409Z,9.73
2022-12-08T05:38:31.571Z,9.77
2022-12-08T05:40:58.716Z,9.43
2022-12-08T05:43:25.866Z,9.87
2022-12-08T05:45:53.013Z,9.77
2022-12-08T05:48:20.388Z,9.43
2022-12-08T05:50:48.130Z,9.97
2022-12-08T05:53:15.737Z,9.87
2022-12-08T05:55:42.984Z,10.17
2022-12-08T05:58:12.798Z,9.40
2022-12-08T06:00:40.052Z,9.10
2022-12-08T06:03:07.413Z,9.50
2022-12-08T06:05:35.517Z,9.87
2022-12-08T06:08:02.989Z,10.57
2022-12-08T06:10:30.144Z,10.57
2022-12-08T06:12:57.511Z,9.93
2022-12-08T06:15:24.626Z,10.30
2022-12-08T06:17:51.810Z,9.60
2022-12-08T06:20:18.972Z,9.83
2022-12-08T06:22:46.075Z,9.83
2022-12-08T06:25:13.409Z,10.27
2022-12-08T06:27:40.563Z,9.90
2022-12-08T06:30:07.967Z,9.40
2022-12-08T06:32:35.159Z,10.53
2022-12-08T06:35:02.399Z,10.27
2022-12-08T06:37:29.585Z,10.07
2022-12-08T06:39:56.974Z,11.23
2022-12-08T06:42:42.793Z,10.30
2022-12-08T06:45:10.548Z,10.77
2022-12-08T06:47:37.680Z,10.43
2022-12-08T06:50:05.666Z,10.13
2022-12-08T06:52:33.101Z,10.43
2022-12-08T06:55:00.220Z,10.70
2022-12-08T06:57:27.379Z,10.37
2022-12-08T06:59:54.566Z,10.73
2022-12-08T07:02:21.831Z,10.03
2022-12-08T07:04:48.939Z,11.17
2022-12-08T07:07:16.109Z,10.57
2022-12-08T07:09:43.289Z,10.07
2022-12-08T07:12:10.574Z,10.47
2022-12-08T07:14:37.673Z,10.27
2022-12-08T07:17:05.054Z,10.33
2022-12-08T07:19:32.270Z,10.73
2022-12-08T07:21:59.421Z,11.10
2022-12-08T07:24:26.637Z,11.97
2022-12-08T07:26:53.760Z,11.80
2022-12-08T07:29:26.075Z,13.03
2022-12-08T07:31:53.757Z,12.93
2022-12-08T07:34:20.949Z,15.00
2022-12-08T07:36:48.072Z,14.13
2022-12-08T07:39:15.198Z,13.93
2022-12-08T07:41:42.322Z,12.73
2022-12-08T07:44:09.704Z,12.17
2022-12-08T07:46:36.861Z,12.67
2022-12-08T07:49:04.175Z,12.83
2022-12-08T07:51:31.268Z,13.00
2022-12-08T07:53:58.410Z,12.30
2022-12-08T07:56:25.605Z,12.37
2022-12-08T07:58:52.875Z,12.53
2022-12-08T08:01:25.334Z,12.03
2022-12-08T08:03:53.041Z,12.87
2022-12-08T08:06:20.254Z,13.20
2022-12-08T08:08:47.400Z,12.03
2022-12-08T08:11:20.887Z,12.07
2022-12-08T08:13:49.167Z,11.97
2022-12-08T08:16:16.658Z,12.10
2022-12-08T08:18:43.967Z,12.27
2022-12-08T08:23:58.131Z,13.17
2022-12-08T08:26:25.280Z,11.77
2022-12-08T08:28:52.516Z,11.93
2022-12-08T08:31:24.791Z,12.03
2022-12-08T08:33:52.015Z,12.13
2022-12-08T08:36:19.328Z,11.30
2022-12-08T08:38:46.442Z,12.33
2022-12-08T08:41:13.679Z,11.90
2022-12-08T08:43:40.960Z,11.37
2022-12-08T08:46:09.148Z,12.63
2022-12-08T08:48:36.410Z,15.97
2022-12-08T08:51:10.961Z,15.13
2022-12-08T08:53:38.385Z,17.03
2022-12-08T08:56:12.266Z,14.60
2022-12-08T08:58:39.613Z,14.40
2022-12-08T09:01:06.848Z,12.70
2022-12-08T09:03:33.974Z,12.47
2022-12-08T09:06:01.196Z,11.90
2022-12-08T09:08:28.437Z,11.17
2022-12-08T09:10:55.717Z,12.43
2022-12-08T09:13:22.867Z,14.27
2022-12-08T09:15:50.064Z,13.00
2022-12-08T09:18:17.286Z,12.03
2022-12-08T09:20:44.410Z,12.30
2022-12-08T09:23:11.538Z,12.20
2022-12-08T09:25:38.735Z,12.33
2022-12-08T09:28:05.850Z,12.03
2022-12-08T09:30:32.965Z,13.20
2022-12-08T09:33:00.138Z,12.23
2022-12-08T09:35:27.288Z,12.33
2022-12-08T09:37:54.431Z,12.17
2022-12-08T09:40:23.537Z,12.50
2022-12-08T09:43:07.524Z,13.33
2022-12-08T09:45:36.070Z,12.00
2022-12-08T09:48:03.156Z,12.33
2022-12-08T09:50:39.238Z,13.13
2022-12-08T09:53:09.351Z,12.90
2022-12-08T09:55:48.868Z,12.90
2022-12-08T09:58:20.799Z,12.83
2022-12-08T10:00:48.198Z,12.57
2022-12-08T10:03:16.998Z,13.83
2022-12-08T10:05:50.512Z,13.27
2022-12-08T10:08:23.332Z,13.50
2022-12-08T10:11:03.600Z,13.83
2022-12-08T10:13:36.861Z,13.03
2022-12-08T10:16:24.393Z,12.63
2022-12-08T10:18:58.124Z,13.63
2022-12-08T10:21:27.561Z,14.70
2022-12-08T10:24:04.719Z,14.00
2022-12-08T10:26:32.904Z,14.37
2022-12-08T10:29:02.889Z,13.53
2022-12-08T10:31:30.778Z,13.63
2022-12-08T10:33:59.263Z,12.27
2022-12-08T10:36:47.255Z,12.87
2022-12-08T10:39:33.190Z,12.63
2022-12-08T10:42:07.692Z,11.90
2022-12-08T10:44:39.161Z,12.00
2022-12-08T10:47:13.777Z,11.97
2022-12-08T10:49:41.021Z,13.07
2022-12-08T10:52:10.181Z,12.33
2022-12-08T10:54:38.394Z,13.07
2022-12-08T10:57:05.568Z,11.87
2022-12-08T10:59:34.369Z,12.20
2022-12-08T11:02:01.650Z,12.17
2022-12-08T11:04:36.537Z,11.60
2022-12-08T11:07:05.201Z,11.53
2022-12-08T11:09:46.736Z,10.63
2022-12-08T11:12:15.300Z,10.43
2022-12-08T11:14:45.908Z,10.67
2022-12-08T11:17:13.348Z,10.77
2022-12-08T11:19:41.104Z,10.77
2022-12-08T11:22:26.233Z,10.77
2022-12-08T11:25:00.273Z,10.90
2022-12-08T11:27:27.403Z,10.23
2022-12-08T11:29:54.640Z,9.97
2022-12-08T11:32:22.082Z,9.97
2022-12-08T11:35:03.039Z,10.27
2022-12-08T11:37:34.680Z,9.80
2022-12-08T11:40:05.997Z,10.27
2022-12-08T11:42:36.637Z,10.63
2022-12-08T11:45:08.773Z,10.17
2022-12-08T11:47:38.043Z,10.70
2022-12-08T11:50:25.753Z,10.13
2022-12-08T11:52:52.987Z,10.83
2022-12-08T11:55:41.612Z,10.27
2022-12-08T11:58:22.213Z,10.07
2022-12-08T12:00:50.053Z,8.87
2022-12-08T12:03:24.355Z,9.33
2022-12-08T12:06:37.723Z,9.70
2022-12-08T12:09:06.978Z,10.00
2022-12-08T12:12:00.078Z,10.00
2022-12-08T12:14:30.006Z,12.33
2022-12-08T12:17:01.495Z,12.47
2022-12-08T12:19:30.333Z,10.13
2022-12-08T12:21:58.066Z,11.80
2022-12-08T12:24:31.560Z,10.27
2022-12-08T12:27:16.489Z,11.60
2022-12-08T12:29:49.809Z,10.70
2022-12-08T12:32:21.676Z,10.83
2022-12-08T12:34:53.980Z,11.37
2022-12-08T12:37:22.737Z,11.47
2022-12-08T12:39:55.869Z,10.23
2022-12-08T12:42:41.867Z,10.27
2022-12-08T12:45:19.016Z,11.30
2022-12-08T12:47:55.914Z,10.43
2022-12-08T12:50:33.130Z,12.60
2022-12-08T12:53:20.617Z,12.23
2022-12-08T12:55:55.535Z,12.50
2022-12-08T12:58:29.394Z,11.70
2022-12-08T13:01:12.079Z,11.57
2022-12-08T13:03:39.260Z,11.57
2022-12-08T13:06:11.332Z,11.50
2022-12-08T13:08:42.799Z,10.33
2022-12-08T13:11:11.117Z,10.63
2022-12-08T13:13:39.099Z,10.50
2022-12-08T13:16:19.133Z,11.80
2022-12-08T13:18:51.116Z,9.90
2022-12-08T13:21:20.857Z,9.97
2022-12-08T13:23:48.076Z,10.83
2022-12-08T13:26:15.301Z,10.83
2022-12-08T13:29:08.595Z,10.60
2022-12-08T13:31:41.682Z,10.97
2022-12-08T13:34:15.096Z,10.50
2022-12-08T13:36:50.277Z,10.07
2022-12-08T13:39:30.073Z,9.60
2022-12-08T13:42:07.028Z,10.97
2022-12-08T13:48:20.442Z,10.13
2022-12-08T13:54:42.489Z,10.13
2022-12-08T13:59:07.748Z,10.23
2022-12-08T14:01:39.703Z,10.90
2022-12-08T14:04:42.158Z,10.27
2022-12-08T14:06:56.649Z,11.10
2022-12-08T14:09:27.255Z,10.57
2022-12-08T14:11:59.797Z,10.30
2022-12-08T14:15:00.642Z,9.17
2022-12-08T14:17:18.926Z,10.17
2022-12-08T14:19:52.946Z,9.73
2022-12-08T14:22:20.129Z,9.73
2022-12-08T14:24:52.169Z,9.13
2022-12-08T14:27:20.904Z,9.60
2022-12-08T14:29:49.578Z,7.77
2022-12-08T14:32:22.849Z,6.90
2022-12-08T14:34:57.725Z,5.87
2022-12-08T14:37:26.761Z,6.77
2022-12-08T14:39:54.628Z,5.80
2022-12-08T14:42:23.635Z,5.47
2022-12-08T14:45:01.518Z,5.43
2022-12-08T14:47:32.518Z,6.23
2022-12-08T14:49:59.825Z,5.57
2022-12-08T14:52:27.644Z,5.43
2022-12-08T14:54:54.859Z,6.13
2022-12-08T14:57:22.212Z,5.73
2022-12-08T14:59:50.182Z,5.87
2022-12-08T15:02:24.216Z,6.37
2022-12-08T15:04:57.445Z,6.13
2022-12-08T15:07:29.384Z,7.23
2022-12-08T15:10:15.440Z,7.80
2022-12-08T15:13:01.471Z,7.00
2022-12-08T15:15:29.092Z,6.40
2022-12-08T15:18:02.493Z,6.57
2022-12-08T15:20:46.364Z,9.50
2022-12-08T15:23:25.789Z,6.93
2022-12-08T15:25:53.374Z,6.73
2022-12-08T15:28:26.694Z,6.93
2022-12-08T15:30:56.929Z,7.97
2022-12-08T15:33:24.242Z,8.17
2022-12-08T15:35:51.733Z,7.83
2022-12-08T15:38:26.717Z,8.17
2022-12-08T15:40:54.593Z,8.03
2022-12-08T15:43:21.994Z,7.33
2022-12-08T15:45:58.254Z,6.67
2022-12-08T15:48:27.873Z,6.40
2022-12-08T15:50:56.036Z,6.43
2022-12-08T15:53:23.367Z,6.83
2022-12-08T15:56:25.249Z,6.93
2022-12-08T15:58:53.674Z,7.00
2022-12-08T16:01:21.808Z,6.73
2022-12-08T16:09:29.020Z,7.43
2022-12-08T16:12:15.127Z,7.43
2022-12-08T16:17:31.388Z,9.00
2022-12-08T16:19:59.255Z,10.20
2022-12-08T16:25:19.788Z,10.33
2022-12-08T16:30:35.262Z,9.60
2022-12-08T16:33:02.625Z,11.77
2022-12-08T16:35:30.173Z,15.17
2022-12-08T16:37:57.495Z,15.63
2022-12-08T16:40:24.704Z,14.63
2022-12-08T16:42:51.960Z,12.33
2022-12-08T16:45:23.687Z,12.80
2022-12-08T16:47:52.346Z,11.43
2022-12-08T16:50:19.496Z,13.03
2022-12-08T16:52:46.984Z,12.40
2022-12-08T16:55:15.962Z,10.43
2022-12-08T16:57:43.619Z,9.07
2022-12-08T17:00:12.853Z,8.43
2022-12-08T17:02:40.398Z,9.67
2022-12-08T17:05:07.835Z,9.67
2022-12-08T17:07:36.133Z,10.00
2022-12-08T17:10:05.106Z,10.03
2022-12-08T17:12:32.610Z,9.57
2022-12-08T17:14:59.743Z,10.10
2022-12-08T17:17:26.919Z,10.33
2022-12-08T17:19:54.022Z,10.17
2022-12-08T17:22:21.176Z,10.23
2022-12-08T17:24:48.433Z,10.37
2022-12-08T17:27:15.616Z,10.17
2022-12-08T17:29:42.750Z,10.53
2022-12-08T17:32:09.950Z,10.50
2022-12-08T17:34:37.135Z,10.53
2022-12-08T17:37:04.560Z,10.47
2022-12-08T17:39:31.725Z,10.30
2022-12-08T17:41:58.930Z,10.50
2022-12-08T17:44:26.168Z,10.50
2022-12-08T17:46:53.553Z,11.27
2022-12-08T17:49:25.056Z,10.30
2022-12-08T17:51:53.692Z,10.07
2022-12-08T17:54:20.885Z,10.63
2022-12-08T17:56:48.035Z,11.30
2022-12-08T17:59:15.846Z,11.30
2022-12-08T18:01:43.164Z,10.80
2022-12-08T18:04:10.838Z,12.77
2022-12-08T18:06:38.376Z,18.20
2022-12-08T18:09:06.771Z,19.63
2022-12-08T18:11:34.743Z,21.97
2022-12-08T18:14:09.353Z,24.60
2022-12-08T18:16:37.910Z,19.90
2022-12-08T18:19:05.330Z,21.03
2022-12-08T18:21:32.519Z,18.80
2022-12-08T18:23:59.887Z,19.77
2022-12-08T18:26:27.127Z,20.43
2022-12-08T18:28:54.283Z,15.57
2022-12-08T18:31:22.652Z,13.83
2022-12-08T18:33:50.388Z,12.60
2022-12-08T18:36:18.804Z,12.10
2022-12-08T18:38:46.280Z,12.63
2022-12-08T18:41:15.462Z,11.73
2022-12-08T18:43:42.658Z,11.30
2022-12-08T18:46:11.408Z,11.13
2022-12-08T18:48:39.498Z,11.67
2022-12-08T18:51:13.778Z,10.90
2022-12-08T18:53:41.241Z,10.00
2022-12-08T18:56:08.878Z,10.73
2022-12-08T18:58:36.273Z,10.03
2022-12-08T19:01:03.517Z,10.23
2022-12-08T19:03:30.712Z,9.60
2022-12-08T19:06:04.432Z,10.33
2022-12-08T19:08:31.930Z,10.97
2022-12-08T19:10:59.279Z,13.10
2022-12-08T19:13:27.296Z,14.57
2022-12-08T19:15:54.829Z,13.07
2022-12-08T19:18:22.056Z,12.30
2022-12-08T19:20:49.227Z,10.43
2022-12-08T19:23:16.550Z,10.80
2022-12-08T19:25:43.673Z,12.23
2022-12-08T19:28:10.823Z,14.87
2022-12-08T19:30:38.046Z,15.47
2022-12-08T19:33:05.352Z,16.27
2022-12-08T19:35:32.496Z,16.80
2022-12-08T19:37:59.645Z,15.27
2022-12-08T19:40:45.742Z,14.47
2022-12-08T19:43:41.486Z,15.47
2022-12-08T19:46:09.220Z,14.90
2022-12-08T19:48:36.469Z,15.27
2022-12-08T19:51:03.779Z,16.70
2022-12-08T19:53:30.908Z,17.77
2022-12-08T19:55:58.093Z,17.93
2022-12-08T19:58:25.265Z,17.30
2022-12-08T20:00:52.467Z,17.10
2022-12-08T20:03:21.151Z,15.27
2022-12-08T20:05:49.177Z,15.17
2022-12-08T20:08:16.534Z,15.63
2022-12-08T20:10:44.324Z,15.10
2022-12-08T20:13:30.492Z,15.07
2022-12-08T20:15:57.983Z,15.37
2022-12-08T20:18:25.515Z,16.07
2022-12-08T20:20:52.653Z,15.67
2022-12-08T20:23:19.836Z,15.77
2022-12-08T20:25:47.903Z,15.20
2022-12-08T20:28:15.344Z,16.10
2022-12-08T20:30:42.838Z,15.97
2022-12-08T20:33:10.997Z,15.57
2022-12-08T20:35:38.149Z,14.13
2022-12-08T20:38:05.290Z,13.60
2022-12-08T20:40:32.449Z,13.00
2022-12-08T20:42:59.532Z,13.37
2022-12-08T20:45:26.659Z,12.27
2022-12-08T20:47:53.854Z,12.97
2022-12-08T20:50:21.285Z,12.73
2022-12-08T20:52:48.498Z,14.00
2022-12-08T20:55:15.685Z,16.33
2022-12-08T20:57:43.009Z,17.70
2022-12-08T21:00:11.315Z,18.33
2022-12-08T21:02:45.072Z,17.63
2022-12-08T21:05:15.204Z,16.63
2022-12-08T21:07:42.720Z,17.23
2022-12-08T21:10:10.982Z,17.30
2022-12-08T21:12:38.553Z,17.13
2022-12-08T21:15:07.488Z,19.10
2022-12-08T21:17:34.724Z,17.00
2022-12-08T21:20:02.117Z,14.80
2022-12-08T21:22:29.454Z,15.20
2022-12-08T21:24:56.929Z,13.73
2022-12-08T21:27:24.303Z,11.87
2022-12-08T21:29:51.444Z,12.17
2022-12-08T21:32:18.710Z,12.53
2022-12-08T21:34:45.987Z,12.77
2022-12-08T21:37:13.314Z,13.57
2022-12-08T21:39:40.467Z,13.43
2022-12-08T21:42:32.309Z,14.20
2022-12-08T21:45:01.312Z,13.03
2022-12-08T21:47:28.627Z,12.10
2022-12-08T21:49:57.039Z,12.57
2022-12-08T21:52:24.267Z,12.20
2022-12-08T21:54:51.495Z,11.30
2022-12-08T21:57:18.689Z,11.10
2022-12-08T21:59:45.930Z,11.40
2022-12-08T22:02:18.035Z,12.67
2022-12-08T22:04:49.656Z,11.47
2022-12-08T22:07:17.171Z,11.00
2022-12-08T22:09:44.679Z,11.73
2022-12-08T22:12:12.262Z,11.80
2022-12-08T22:14:40.386Z,10.97
2022-12-08T22:17:07.948Z,13.10
2022-12-08T22:19:35.488Z,15.47
2022-12-08T22:22:03.088Z,14.87
2022-12-08T22:24:30.962Z,12.83
2022-12-08T22:26:58.335Z,13.07
2022-12-08T22:29:25.724Z,12.30
2022-12-08T22:31:53.093Z,10.30
2022-12-08T22:34:20.526Z,10.17
2022-12-08T22:36:49.147Z,11.17
2022-12-08T22:39:16.572Z,9.47
2022-12-08T22:41:44.113Z,9.30
2022-12-08T22:44:12.308Z,9.10
2022-12-08T22:46:39.926Z,10.07
2022-12-08T22:49:07.253Z,10.90
2022-12-08T22:51:36.695Z,11.80
2022-12-08T22:54:04.445Z,12.07
2022-12-08T22:56:31.732Z,11.23
2022-12-08T22:58:59.459Z,12.57
2022-12-08T23:01:31.389Z,12.30
2022-12-08T23:03:59.332Z,11.73
2022-12-08T23:06:27.221Z,11.60
2022-12-08T23:08:54.895Z,12.93
2022-12-08T23:11:22.938Z,11.57
2022-12-08T23:13:50.266Z,11.57
2022-12-08T23:16:17.464Z,12.33
2022-12-08T23:18:45.489Z,11.43
2022-12-08T23:21:14.029Z,11.67
2022-12-08T23:23:41.559Z,12.30
2022-12-08T23:26:18.685Z,10.43
2022-12-08T23:28:45.871Z,11.00
2022-12-08T23:31:13.223Z,10.73
2022-12-08T23:33:40.548Z,11.87
2022-12-08T23:36:07.893Z,10.90
2022-12-08T23:38:35.332Z,11.40
2022-12-08T23:41:03.565Z,11.67
2022-12-08T23:43:30.775Z,11.57
2022-12-08T23:45:58.097Z,12.97
2022-12-08T23:48:26.755Z,14.10
2022-12-08T23:50:53.950Z,11.97
2022-12-08T23:53:21.207Z,11.70
2022-12-08T23:55:48.403Z,13.23
2022-12-08T23:58:15.686Z,11.20
